sensor_id;sensor_type;location;lat;lon;timestamp;temperature;humidity
59999;DHT22;45859;51.378;6.736;2023-07-02T00:01:36;17.80;99.90
59999;DHT22;45859;51.378;6.736;2023-07-02T00:04:02;17.70;99.90
59999;DHT22;45859;51.378;6.736;2023-07-02T00:06:28;17.70;99.90
59999;DHT22;45859;51.378;6.736;2023-07-02T00:08:53;17.70;99.90
59999;DHT22;45859;51.378;6.736;2023-07-02T00:11:19;17.70;99.90
59999;DHT22;45859;51.378;6.736;2023-07-02T00:13:44;17.70;99.90
59999;DHT22;45859;51.378;6.736;2023-07-02T00:16:10;17.70;99.90
59999;DHT22;45859;51.378;6.736;2023-07-02T00:18:35;17.60;99.90
59999;DHT22;45859;51.378;6.736;2023-07-02T00:21:01;17.70;99.90
59999;DHT22;45859;51.378;6.736;2023-07-02T00:23:30;17.60;99.90
59999;DHT22;45859;51.378;6.736;2023-07-02T00:25:58;17.60;99.90
59999;DHT22;45859;51.378;6.736;2023-07-02T00:28:24;17.50;99.90
59999;DHT22;45859;51.378;6.736;2023-07-02T00:30:50;17.50;99.90
59999;DHT22;45859;51.378;6.736;2023-07-02T00:33:16;17.50;99.90
59999;DHT22;45859;51.378;6.736;2023-07-02T00:35:41;17.40;99.90
59999;DHT22;45859;51.378;6.736;2023-07-02T00:38:07;17.50;99.90
59999;DHT22;45859;51.378;6.736;2023-07-02T00:40:32;17.40;99.90
59999;DHT22;45859;51.378;6.736;2023-07-02T00:42:58;17.30;99.90
59999;DHT22;45859;51.378;6.736;2023-07-02T00:45:23;17.30;99.90
59999;DHT22;45859;51.378;6.736;2023-07-02T00:47:54;17.20;99.90
59999;DHT22;45859;51.378;6.736;2023-07-02T00:50:21;17.20;99.90
59999;DHT22;45859;51.378;6.736;2023-07-02T00:52:47;17.20;99.90
59999;DHT22;45859;51.378;6.736;2023-07-02T00:55:13;17.10;99.90
59999;DHT22;45859;51.378;6.736;2023-07-02T00:57:39;17.10;99.90
59999;DHT22;45859;51.378;6.736;2023-07-02T01:00:07;17.10;99.90
59999;DHT22;45859;51.378;6.736;2023-07-02T01:02:33;17.10;99.90
59999;DHT22;45859;51.378;6.736;2023-07-02T01:04:58;17.00;99.90
59999;DHT22;45859;51.378;6.736;2023-07-02T01:07:25;17.00;99.90
59999;DHT22;45859;51.378;6.736;2023-07-02T01:09:51;17.00;99.90
59999;DHT22;45859;51.378;6.736;2023-07-02T01:12:17;17.00;99.90
59999;DHT22;45859;51.378;6.736;2023-07-02T01:14:52;16.90;99.90
59999;DHT22;45859;51.378;6.736;2023-07-02T01:17:19;16.80;99.90
59999;DHT22;45859;51.378;6.736;2023-07-02T01:19:50;16.90;99.90
59999;DHT22;45859;51.378;6.736;2023-07-02T01:22:21;16.90;99.90
59999;DHT22;45859;51.378;6.736;2023-07-02T01:24:48;16.90;99.90
59999;DHT22;45859;51.378;6.736;2023-07-02T01:27:17;16.80;99.90
59999;DHT22;45859;51.378;6.736;2023-07-02T01:29:43;16.70;99.90
59999;DHT22;45859;51.378;6.736;2023-07-02T01:32:12;16.70;99.90
59999;DHT22;45859;51.378;6.736;2023-07-02T01:34:38;16.60;99.90
59999;DHT22;45859;51.378;6.736;2023-07-02T01:37:04;16.60;99.90
59999;DHT22;45859;51.378;6.736;2023-07-02T01:39:30;16.50;99.90
59999;DHT22;45859;51.378;6.736;2023-07-02T01:44:32;16.50;99.90
59999;DHT22;45859;51.378;6.736;2023-07-02T01:46:58;16.50;99.90
59999;DHT22;45859;51.378;6.736;2023-07-02T01:49:24;16.50;99.90
59999;DHT22;45859;51.378;6.736;2023-07-02T01:51:54;16.50;99.90
59999;DHT22;45859;51.378;6.736;2023-07-02T01:54:21;16.50;99.90
59999;DHT22;45859;51.378;6.736;2023-07-02T01:56:47;16.60;99.90
59999;DHT22;45859;51.378;6.736;2023-07-02T01:59:14;16.60;99.90
59999;DHT22;45859;51.378;6.736;2023-07-02T02:01:39;16.60;99.90
59999;DHT22;45859;51.378;6.736;2023-07-02T02:04:07;16.10;99.90
59999;DHT22;45859;51.378;6.736;2023-07-02T02:06:33;16.60;99.90
59999;DHT22;45859;51.378;6.736;2023-07-02T02:08:58;16.80;99.90
59999;DHT22;45859;51.378;6.736;2023-07-02T02:11:24;16.60;99.90
59999;DHT22;45859;51.378;6.736;2023-07-02T02:13:50;16.60;99.90
59999;DHT22;45859;51.378;6.736;2023-07-02T02:16:15;16.60;99.90
59999;DHT22;45859;51.378;6.736;2023-07-02T02:18:41;16.60;99.90
59999;DHT22;45859;51.378;6.736;2023-07-02T02:21:07;16.60;99.90
59999;DHT22;45859;51.378;6.736;2023-07-02T02:23:33;16.50;99.90
59999;DHT22;45859;51.378;6.736;2023-07-02T02:25:58;16.60;99.90
59999;DHT22;45859;51.378;6.736;2023-07-02T02:28:24;16.50;99.90
59999;DHT22;45859;51.378;6.736;2023-07-02T02:30:50;16.60;99.90
59999;DHT22;45859;51.378;6.736;2023-07-02T02:33:15;16.50;99.90
59999;DHT22;45859;51.378;6.736;2023-07-02T02:35:41;16.60;99.90
59999;DHT22;45859;51.378;6.736;2023-07-02T02:38:06;16.50;99.90
59999;DHT22;45859;51.378;6.736;2023-07-02T02:40:32;16.60;99.90
59999;DHT22;45859;51.378;6.736;2023-07-02T02:42:57;16.60;99.90
59999;DHT22;45859;51.378;6.736;2023-07-02T02:45:23;16.70;99.90
59999;DHT22;45859;51.378;6.736;2023-07-02T02:47:49;16.70;99.90
59999;DHT22;45859;51.378;6.736;2023-07-02T02:50:14;16.70;99.90
59999;DHT22;45859;51.378;6.736;2023-07-02T02:52:40;16.70;99.90
59999;DHT22;45859;51.378;6.736;2023-07-02T02:55:06;16.70;99.90
59999;DHT22;45859;51.378;6.736;2023-07-02T02:57:33;16.70;99.90
59999;DHT22;45859;51.378;6.736;2023-07-02T02:59:59;16.60;99.90
59999;DHT22;45859;51.378;6.736;2023-07-02T03:02:25;16.60;99.90
59999;DHT22;45859;51.378;6.736;2023-07-02T03:04:50;16.60;99.90
59999;DHT22;45859;51.378;6.736;2023-07-02T03:07:16;16.50;99.90
59999;DHT22;45859;51.378;6.736;2023-07-02T03:09:42;16.60;99.90
59999;DHT22;45859;51.378;6.736;2023-07-02T03:12:07;16.50;99.90
59999;DHT22;45859;51.378;6.736;2023-07-02T03:17:03;16.50;99.90
59999;DHT22;45859;51.378;6.736;2023-07-02T03:19:29;16.40;99.90
59999;DHT22;45859;51.378;6.736;2023-07-02T03:21:54;16.40;99.90
59999;DHT22;45859;51.378;6.736;2023-07-02T03:24:20;16.40;99.90
59999;DHT22;45859;51.378;6.736;2023-07-02T03:26:46;16.40;99.90
59999;DHT22;45859;51.378;6.736;2023-07-02T03:29:12;16.40;99.90
59999;DHT22;45859;51.378;6.736;2023-07-02T03:31:38;16.40;99.90
59999;DHT22;45859;51.378;6.736;2023-07-02T03:34:06;16.50;99.90
59999;DHT22;45859;51.378;6.736;2023-07-02T03:36:32;16.40;99.90
59999;DHT22;45859;51.378;6.736;2023-07-02T03:38:58;16.40;99.90
59999;DHT22;45859;51.378;6.736;2023-07-02T03:41:23;16.40;99.90
59999;DHT22;45859;51.378;6.736;2023-07-02T03:43:49;16.30;99.90
59999;DHT22;45859;51.378;6.736;2023-07-02T03:46:14;16.40;99.90
59999;DHT22;45859;51.378;6.736;2023-07-02T03:48:40;16.30;99.90
59999;DHT22;45859;51.378;6.736;2023-07-02T03:51:06;16.30;99.90
59999;DHT22;45859;51.378;6.736;2023-07-02T03:53:32;16.30;99.90
59999;DHT22;45859;51.378;6.736;2023-07-02T03:55:57;16.20;99.90
59999;DHT22;45859;51.378;6.736;2023-07-02T03:58:23;16.30;99.90
59999;DHT22;45859;51.378;6.736;2023-07-02T04:00:48;16.30;99.90
59999;DHT22;45859;51.378;6.736;2023-07-02T04:03:17;16.30;99.90
59999;DHT22;45859;51.378;6.736;2023-07-02T04:05:44;16.30;99.90
59999;DHT22;45859;51.378;6.736;2023-07-02T04:08:09;16.30;99.90
59999;DHT22;45859;51.378;6.736;2023-07-02T04:10:35;16.30;99.90
59999;DHT22;45859;51.378;6.736;2023-07-02T04:13:01;16.40;99.90
59999;DHT22;45859;51.378;6.736;2023-07-02T04:15:26;16.30;99.90
59999;DHT22;45859;51.378;6.736;2023-07-02T04:17:52;16.30;99.90
59999;DHT22;45859;51.378;6.736;2023-07-02T04:20:19;16.30;99.90
59999;DHT22;45859;51.378;6.736;2023-07-02T04:22:46;16.30;99.90
59999;DHT22;45859;51.378;6.736;2023-07-02T04:25:12;16.40;99.90
59999;DHT22;45859;51.378;6.736;2023-07-02T04:27:44;16.40;99.90
59999;DHT22;45859;51.378;6.736;2023-07-02T04:30:13;16.40;99.90
59999;DHT22;45859;51.378;6.736;2023-07-02T04:32:40;16.40;99.90
59999;DHT22;45859;51.378;6.736;2023-07-02T04:35:09;16.40;99.90
59999;DHT22;45859;51.378;6.736;2023-07-02T04:37:35;16.50;99.90
59999;DHT22;45859;51.378;6.736;2023-07-02T04:40:01;16.50;99.90
59999;DHT22;45859;51.378;6.736;2023-07-02T04:42:29;16.50;99.90
59999;DHT22;45859;51.378;6.736;2023-07-02T04:44:57;16.50;99.90
59999;DHT22;45859;51.378;6.736;2023-07-02T04:47:28;16.50;99.90
59999;DHT22;45859;51.378;6.736;2023-07-02T04:49:54;16.60;99.90
59999;DHT22;45859;51.378;6.736;2023-07-02T04:52:20;16.60;99.90
59999;DHT22;45859;51.378;6.736;2023-07-02T04:54:45;16.70;99.90
59999;DHT22;45859;51.378;6.736;2023-07-02T04:57:11;16.90;99.90
59999;DHT22;45859;51.378;6.736;2023-07-02T04:59:38;16.90;99.90
59999;DHT22;45859;51.378;6.736;2023-07-02T05:02:04;17.00;99.90
59999;DHT22;45859;51.378;6.736;2023-07-02T05:04:29;17.30;99.90
59999;DHT22;45859;51.378;6.736;2023-07-02T05:06:55;17.10;99.90
59999;DHT22;45859;51.378;6.736;2023-07-02T05:09:20;17.20;99.90
59999;DHT22;45859;51.378;6.736;2023-07-02T05:11:46;17.10;99.90
59999;DHT22;45859;51.378;6.736;2023-07-02T05:14:11;17.20;99.90
59999;DHT22;45859;51.378;6.736;2023-07-02T05:16:37;17.20;99.90
59999;DHT22;45859;51.378;6.736;2023-07-02T05:19:03;17.10;99.90
59999;DHT22;45859;51.378;6.736;2023-07-02T05:21:28;17.00;99.90
59999;DHT22;45859;51.378;6.736;2023-07-02T05:23:54;17.00;99.90
59999;DHT22;45859;51.378;6.736;2023-07-02T05:26:19;17.20;99.90
59999;DHT22;45859;51.378;6.736;2023-07-02T05:28:45;17.20;99.90
59999;DHT22;45859;51.378;6.736;2023-07-02T05:31:11;17.40;99.90
59999;DHT22;45859;51.378;6.736;2023-07-02T05:33:38;17.40;99.90
59999;DHT22;45859;51.378;6.736;2023-07-02T05:36:03;17.70;99.90
59999;DHT22;45859;51.378;6.736;2023-07-02T05:38:29;17.90;99.90
59999;DHT22;45859;51.378;6.736;2023-07-02T05:40:55;18.00;99.90
59999;DHT22;45859;51.378;6.736;2023-07-02T05:43:20;18.30;99.90
59999;DHT22;45859;51.378;6.736;2023-07-02T05:45:46;18.30;99.90
59999;DHT22;45859;51.378;6.736;2023-07-02T05:48:11;18.40;99.90
59999;DHT22;45859;51.378;6.736;2023-07-02T05:50:37;18.70;99.90
59999;DHT22;45859;51.378;6.736;2023-07-02T05:53:03;18.80;99.90
59999;DHT22;45859;51.378;6.736;2023-07-02T05:55:28;19.00;99.90
59999;DHT22;45859;51.378;6.736;2023-07-02T05:57:54;18.80;99.90
59999;DHT22;45859;51.378;6.736;2023-07-02T06:00:20;18.80;99.90
59999;DHT22;45859;51.378;6.736;2023-07-02T06:02:48;19.00;99.90
59999;DHT22;45859;51.378;6.736;2023-07-02T06:05:14;19.30;99.90
59999;DHT22;45859;51.378;6.736;2023-07-02T06:07:39;19.60;99.90
59999;DHT22;45859;51.378;6.736;2023-07-02T06:10:05;19.90;99.90
59999;DHT22;45859;51.378;6.736;2023-07-02T06:12:31;20.00;99.90
59999;DHT22;45859;51.378;6.736;2023-07-02T06:14:57;20.00;99.90
59999;DHT22;45859;51.378;6.736;2023-07-02T06:17:22;19.90;99.90
59999;DHT22;45859;51.378;6.736;2023-07-02T06:19:50;19.80;99.90
59999;DHT22;45859;51.378;6.736;2023-07-02T06:22:16;19.50;99.90
59999;DHT22;45859;51.378;6.736;2023-07-02T06:24:41;19.60;99.90
59999;DHT22;45859;51.378;6.736;2023-07-02T06:27:07;19.50;99.90
59999;DHT22;45859;51.378;6.736;2023-07-02T06:29:32;19.80;99.90
59999;DHT22;45859;51.378;6.736;2023-07-02T06:31:58;20.50;99.90
59999;DHT22;45859;51.378;6.736;2023-07-02T06:34:23;21.20;99.90
59999;DHT22;45859;51.378;6.736;2023-07-02T06:36:49;22.40;99.90
59999;DHT22;45859;51.378;6.736;2023-07-02T06:39:15;23.90;99.90
59999;DHT22;45859;51.378;6.736;2023-07-02T06:41:40;24.30;99.90
59999;DHT22;45859;51.378;6.736;2023-07-02T06:44:06;24.80;99.90
59999;DHT22;45859;51.378;6.736;2023-07-02T06:46:32;24.10;99.90
59999;DHT22;45859;51.378;6.736;2023-07-02T06:48:58;23.70;99.90
59999;DHT22;45859;51.378;6.736;2023-07-02T06:51:23;23.20;99.90
59999;DHT22;45859;51.378;6.736;2023-07-02T06:53:51;23.10;99.90
59999;DHT22;45859;51.378;6.736;2023-07-02T06:56:17;22.80;99.90
59999;DHT22;45859;51.378;6.736;2023-07-02T06:58:42;22.60;99.90
59999;DHT22;45859;51.378;6.736;2023-07-02T07:01:09;23.30;99.90
59999;DHT22;45859;51.378;6.736;2023-07-02T07:03:35;23.60;99.90
59999;DHT22;45859;51.378;6.736;2023-07-02T07:06:01;24.40;99.90
59999;DHT22;45859;51.378;6.736;2023-07-02T07:08:26;24.30;99.90
59999;DHT22;45859;51.378;6.736;2023-07-02T07:10:52;24.50;99.90
59999;DHT22;45859;51.378;6.736;2023-07-02T07:13:18;24.50;99.90
59999;DHT22;45859;51.378;6.736;2023-07-02T07:15:43;24.20;99.90
59999;DHT22;45859;51.378;6.736;2023-07-02T07:18:09;23.70;99.90
59999;DHT22;45859;51.378;6.736;2023-07-02T07:20:35;23.20;99.90
59999;DHT22;45859;51.378;6.736;2023-07-02T07:23:02;23.40;99.90
59999;DHT22;45859;51.378;6.736;2023-07-02T07:25:28;24.00;99.90
59999;DHT22;45859;51.378;6.736;2023-07-02T07:27:54;23.30;99.90
59999;DHT22;45859;51.378;6.736;2023-07-02T07:30:20;23.50;99.90
59999;DHT22;45859;51.378;6.736;2023-07-02T07:32:51;24.60;99.90
59999;DHT22;45859;51.378;6.736;2023-07-02T07:35:18;24.80;99.90
59999;DHT22;45859;51.378;6.736;2023-07-02T07:37:44;23.50;99.90
59999;DHT22;45859;51.378;6.736;2023-07-02T07:40:11;24.80;99.90
59999;DHT22;45859;51.378;6.736;2023-07-02T07:42:36;24.30;99.90
59999;DHT22;45859;51.378;6.736;2023-07-02T07:45:03;24.10;99.90
59999;DHT22;45859;51.378;6.736;2023-07-02T07:47:29;24.20;99.90
59999;DHT22;45859;51.378;6.736;2023-07-02T07:49:54;24.70;99.90
59999;DHT22;45859;51.378;6.736;2023-07-02T07:52:20;24.40;99.90
59999;DHT22;45859;51.378;6.736;2023-07-02T07:54:46;23.10;99.90
59999;DHT22;45859;51.378;6.736;2023-07-02T07:57:12;22.80;99.90
59999;DHT22;45859;51.378;6.736;2023-07-02T07:59:38;23.00;99.90
59999;DHT22;45859;51.378;6.736;2023-07-02T08:02:03;23.30;99.90
59999;DHT22;45859;51.378;6.736;2023-07-02T08:04:29;24.10;99.90
59999;DHT22;45859;51.378;6.736;2023-07-02T08:06:55;23.80;99.90
59999;DHT22;45859;51.378;6.736;2023-07-02T08:09:23;24.20;99.90
59999;DHT22;45859;51.378;6.736;2023-07-02T08:11:48;25.00;99.90
59999;DHT22;45859;51.378;6.736;2023-07-02T08:14:15;24.90;99.90
59999;DHT22;45859;51.378;6.736;2023-07-02T08:16:41;25.40;99.90
59999;DHT22;45859;51.378;6.736;2023-07-02T08:19:07;26.40;99.90
59999;DHT22;45859;51.378;6.736;2023-07-02T08:21:32;26.90;99.90
59999;DHT22;45859;51.378;6.736;2023-07-02T08:23:58;26.70;99.90
59999;DHT22;45859;51.378;6.736;2023-07-02T08:26:23;25.90;99.90
59999;DHT22;45859;51.378;6.736;2023-07-02T08:28:49;25.60;99.90
59999;DHT22;45859;51.378;6.736;2023-07-02T08:31:15;25.40;99.90
59999;DHT22;45859;51.378;6.736;2023-07-02T08:33:41;25.90;99.90
59999;DHT22;45859;51.378;6.736;2023-07-02T08:36:06;25.60;99.90
59999;DHT22;45859;51.378;6.736;2023-07-02T08:38:32;25.10;99.90
59999;DHT22;45859;51.378;6.736;2023-07-02T08:40:58;24.50;99.90
59999;DHT22;45859;51.378;6.736;2023-07-02T08:43:26;24.00;99.90
59999;DHT22;45859;51.378;6.736;2023-07-02T08:45:53;23.40;99.90
59999;DHT22;45859;51.378;6.736;2023-07-02T08:48:19;23.10;99.90
59999;DHT22;45859;51.378;6.736;2023-07-02T08:50:48;22.80;99.90
59999;DHT22;45859;51.378;6.736;2023-07-02T08:53:15;22.70;99.90
59999;DHT22;45859;51.378;6.736;2023-07-02T08:55:40;22.50;99.90
59999;DHT22;45859;51.378;6.736;2023-07-02T08:58:06;22.60;99.90
59999;DHT22;45859;51.378;6.736;2023-07-02T09:00:31;22.90;99.90
59999;DHT22;45859;51.378;6.736;2023-07-02T09:03:15;23.80;99.90
59999;DHT22;45859;51.378;6.736;2023-07-02T09:05:51;25.00;99.90
59999;DHT22;45859;51.378;6.736;2023-07-02T09:08:28;25.60;99.90
59999;DHT22;45859;51.378;6.736;2023-07-02T09:10:54;26.00;99.90
59999;DHT22;45859;51.378;6.736;2023-07-02T09:13:30;25.80;99.90
59999;DHT22;45859;51.378;6.736;2023-07-02T09:18:31;25.80;99.90
59999;DHT22;45859;51.378;6.736;2023-07-02T09:20:56;26.10;99.90
59999;DHT22;45859;51.378;6.736;2023-07-02T09:23:22;26.60;99.90
59999;DHT22;45859;51.378;6.736;2023-07-02T09:25:48;26.40;99.90
59999;DHT22;45859;51.378;6.736;2023-07-02T09:28:18;26.30;99.90
59999;DHT22;45859;51.378;6.736;2023-07-02T09:33:16;26.00;99.90
59999;DHT22;45859;51.378;6.736;2023-07-02T09:35:42;25.40;99.90
59999;DHT22;45859;51.378;6.736;2023-07-02T09:38:09;24.60;99.90
59999;DHT22;45859;51.378;6.736;2023-07-02T09:40:39;24.00;99.90
59999;DHT22;45859;51.378;6.736;2023-07-02T09:43:10;23.10;99.90
59999;DHT22;45859;51.378;6.736;2023-07-02T09:45:36;22.50;99.90
59999;DHT22;45859;51.378;6.736;2023-07-02T09:48:02;22.00;99.90
59999;DHT22;45859;51.378;6.736;2023-07-02T09:50:29;21.90;99.90
59999;DHT22;45859;51.378;6.736;2023-07-02T09:52:55;22.00;99.90
59999;DHT22;45859;51.378;6.736;2023-07-02T09:55:22;21.60;99.90
59999;DHT22;45859;51.378;6.736;2023-07-02T09:57:48;21.50;99.90
59999;DHT22;45859;51.378;6.736;2023-07-02T10:00:14;21.40;99.90
59999;DHT22;45859;51.378;6.736;2023-07-02T10:02:40;21.60;99.90
59999;DHT22;45859;51.378;6.736;2023-07-02T10:05:06;21.50;99.90
59999;DHT22;45859;51.378;6.736;2023-07-02T10:07:32;21.80;99.90
59999;DHT22;45859;51.378;6.736;2023-07-02T10:09:59;22.80;99.90
59999;DHT22;45859;51.378;6.736;2023-07-02T10:12:26;23.40;99.90
59999;DHT22;45859;51.378;6.736;2023-07-02T10:14:55;23.50;99.90
59999;DHT22;45859;51.378;6.736;2023-07-02T10:22:26;23.80;99.90
59999;DHT22;45859;51.378;6.736;2023-07-02T10:24:59;23.50;99.90
59999;DHT22;45859;51.378;6.736;2023-07-02T10:27:39;23.40;99.90
59999;DHT22;45859;51.378;6.736;2023-07-02T10:30:06;23.20;99.90
59999;DHT22;45859;51.378;6.736;2023-07-02T10:32:33;23.10;99.90
59999;DHT22;45859;51.378;6.736;2023-07-02T10:35:13;23.20;99.90
59999;DHT22;45859;51.378;6.736;2023-07-02T10:37:38;23.30;99.90
59999;DHT22;45859;51.378;6.736;2023-07-02T10:40:08;23.20;99.90
59999;DHT22;45859;51.378;6.736;2023-07-02T10:42:51;23.10;99.90
59999;DHT22;45859;51.378;6.736;2023-07-02T10:45:17;23.00;99.90
59999;DHT22;45859;51.378;6.736;2023-07-02T10:47:43;23.20;99.90
59999;DHT22;45859;51.378;6.736;2023-07-02T10:50:18;23.10;99.90
59999;DHT22;45859;51.378;6.736;2023-07-02T10:52:45;22.90;99.90
59999;DHT22;45859;51.378;6.736;2023-07-02T10:55:15;22.90;99.90
59999;DHT22;45859;51.378;6.736;2023-07-02T10:57:41;23.10;99.90
59999;DHT22;45859;51.378;6.736;2023-07-02T11:00:07;23.50;99.90
59999;DHT22;45859;51.378;6.736;2023-07-02T11:02:37;23.60;99.90
59999;DHT22;45859;51.378;6.736;2023-07-02T11:05:04;23.50;99.90
59999;DHT22;45859;51.378;6.736;2023-07-02T11:07:32;23.80;99.90
59999;DHT22;45859;51.378;6.736;2023-07-02T11:09:57;23.70;99.90
59999;DHT22;45859;51.378;6.736;2023-07-02T11:12:30;23.70;99.90
59999;DHT22;45859;51.378;6.736;2023-07-02T11:15:10;24.00;99.90
59999;DHT22;45859;51.378;6.736;2023-07-02T11:17:36;24.40;99.90
59999;DHT22;45859;51.378;6.736;2023-07-02T11:20:02;24.40;99.90
59999;DHT22;45859;51.378;6.736;2023-07-02T11:22:34;24.60;99.90
59999;DHT22;45859;51.378;6.736;2023-07-02T11:27:34;24.50;99.90
59999;DHT22;45859;51.378;6.736;2023-07-02T11:30:00;24.50;99.90
59999;DHT22;45859;51.378;6.736;2023-07-02T11:32:25;24.40;99.90
59999;DHT22;45859;51.378;6.736;2023-07-02T11:34:55;24.20;99.90
59999;DHT22;45859;51.378;6.736;2023-07-02T11:37:20;24.00;99.90
59999;DHT22;45859;51.378;6.736;2023-07-02T11:39:46;23.70;99.90
59999;DHT22;45859;51.378;6.736;2023-07-02T11:42:12;23.40;99.90
59999;DHT22;45859;51.378;6.736;2023-07-02T11:44:37;23.50;99.90
59999;DHT22;45859;51.378;6.736;2023-07-02T11:47:03;23.40;99.90
59999;DHT22;45859;51.378;6.736;2023-07-02T11:49:29;23.40;99.90
59999;DHT22;45859;51.378;6.736;2023-07-02T11:51:54;23.50;99.90
59999;DHT22;45859;51.378;6.736;2023-07-02T11:54:20;23.50;99.90
59999;DHT22;45859;51.378;6.736;2023-07-02T11:56:46;23.50;99.90
59999;DHT22;45859;51.378;6.736;2023-07-02T11:59:11;23.60;99.90
59999;DHT22;45859;51.378;6.736;2023-07-02T12:01:37;23.50;99.90
59999;DHT22;45859;51.378;6.736;2023-07-02T12:04:03;23.60;99.90
59999;DHT22;45859;51.378;6.736;2023-07-02T12:06:33;23.30;99.90
59999;DHT22;45859;51.378;6.736;2023-07-02T12:08:59;23.10;99.90
59999;DHT22;45859;51.378;6.736;2023-07-02T12:11:24;23.10;99.90
59999;DHT22;45859;51.378;6.736;2023-07-02T12:13:50;23.40;99.90
59999;DHT22;45859;51.378;6.736;2023-07-02T12:16:16;23.40;99.90
59999;DHT22;45859;51.378;6.736;2023-07-02T12:18:41;23.50;99.90
59999;DHT22;45859;51.378;6.736;2023-07-02T12:21:07;23.40;99.90
59999;DHT22;45859;51.378;6.736;2023-07-02T12:23:32;23.40;99.90
59999;DHT22;45859;51.378;6.736;2023-07-02T12:25:58;23.20;99.90
59999;DHT22;45859;51.378;6.736;2023-07-02T12:28:23;23.40;99.90
59999;DHT22;45859;51.378;6.736;2023-07-02T12:30:49;23.30;99.90
59999;DHT22;45859;51.378;6.736;2023-07-02T12:33:15;23.30;99.90
59999;DHT22;45859;51.378;6.736;2023-07-02T12:35:40;23.50;99.90
59999;DHT22;45859;51.378;6.736;2023-07-02T12:38:06;23.50;99.90
59999;DHT22;45859;51.378;6.736;2023-07-02T12:40:34;23.10;99.90
59999;DHT22;45859;51.378;6.736;2023-07-02T12:42:59;22.90;99.90
59999;DHT22;45859;51.378;6.736;2023-07-02T12:45:25;22.80;99.90
59999;DHT22;45859;51.378;6.736;2023-07-02T12:47:51;23.10;99.90
59999;DHT22;45859;51.378;6.736;2023-07-02T12:50:16;23.20;99.90
59999;DHT22;45859;51.378;6.736;2023-07-02T12:52:42;23.30;99.90
59999;DHT22;45859;51.378;6.736;2023-07-02T12:55:08;23.00;99.90
59999;DHT22;45859;51.378;6.736;2023-07-02T12:57:34;23.30;99.90
59999;DHT22;45859;51.378;6.736;2023-07-02T12:59:59;23.40;99.90
59999;DHT22;45859;51.378;6.736;2023-07-02T13:02:25;23.40;99.90
59999;DHT22;45859;51.378;6.736;2023-07-02T13:04:51;23.30;99.90
59999;DHT22;45859;51.378;6.736;2023-07-02T13:07:17;23.00;99.90
59999;DHT22;45859;51.378;6.736;2023-07-02T13:09:43;22.80;99.90
59999;DHT22;45859;51.378;6.736;2023-07-02T13:12:10;22.70;99.90
59999;DHT22;45859;51.378;6.736;2023-07-02T13:14:36;22.90;99.90
59999;DHT22;45859;51.378;6.736;2023-07-02T13:17:02;22.90;99.90
59999;DHT22;45859;51.378;6.736;2023-07-02T13:19:30;22.90;99.90
59999;DHT22;45859;51.378;6.736;2023-07-02T13:21:56;23.00;99.90
59999;DHT22;45859;51.378;6.736;2023-07-02T13:24:22;22.90;99.90
59999;DHT22;45859;51.378;6.736;2023-07-02T13:26:48;22.80;99.90
59999;DHT22;45859;51.378;6.736;2023-07-02T13:29:14;23.00;99.90
59999;DHT22;45859;51.378;6.736;2023-07-02T13:31:39;23.10;99.90
59999;DHT22;45859;51.378;6.736;2023-07-02T13:34:05;23.20;99.90
59999;DHT22;45859;51.378;6.736;2023-07-02T13:36:30;23.20;99.90
59999;DHT22;45859;51.378;6.736;2023-07-02T13:38:56;23.10;99.90
59999;DHT22;45859;51.378;6.736;2023-07-02T13:41:22;23.20;99.90
59999;DHT22;45859;51.378;6.736;2023-07-02T13:43:47;23.20;99.90
59999;DHT22;45859;51.378;6.736;2023-07-02T13:46:13;23.10;99.90
59999;DHT22;45859;51.378;6.736;2023-07-02T13:48:39;23.20;99.90
59999;DHT22;45859;51.378;6.736;2023-07-02T13:51:05;23.20;99.90
59999;DHT22;45859;51.378;6.736;2023-07-02T13:53:30;23.30;99.90
59999;DHT22;45859;51.378;6.736;2023-07-02T13:55:57;23.30;99.90
59999;DHT22;45859;51.378;6.736;2023-07-02T13:58:23;23.10;99.90
59999;DHT22;45859;51.378;6.736;2023-07-02T14:00:48;23.00;99.90
59999;DHT22;45859;51.378;6.736;2023-07-02T14:03:14;23.00;99.90
59999;DHT22;45859;51.378;6.736;2023-07-02T14:05:40;23.00;99.90
59999;DHT22;45859;51.378;6.736;2023-07-02T14:08:06;23.20;99.90
59999;DHT22;45859;51.378;6.736;2023-07-02T14:10:32;23.30;99.90
59999;DHT22;45859;51.378;6.736;2023-07-02T14:12:57;23.10;99.90
59999;DHT22;45859;51.378;6.736;2023-07-02T14:15:24;23.00;99.90
59999;DHT22;45859;51.378;6.736;2023-07-02T14:17:50;22.80;99.90
59999;DHT22;45859;51.378;6.736;2023-07-02T14:20:16;22.80;99.90
59999;DHT22;45859;51.378;6.736;2023-07-02T14:22:42;22.80;99.90
59999;DHT22;45859;51.378;6.736;2023-07-02T14:25:08;22.70;99.90
59999;DHT22;45859;51.378;6.736;2023-07-02T14:27:33;22.90;99.90
59999;DHT22;45859;51.378;6.736;2023-07-02T14:29:59;22.80;99.90
59999;DHT22;45859;51.378;6.736;2023-07-02T14:32:26;22.80;99.90
59999;DHT22;45859;51.378;6.736;2023-07-02T14:34:52;22.70;99.90
59999;DHT22;45859;51.378;6.736;2023-07-02T14:37:17;22.40;99.90
59999;DHT22;45859;51.378;6.736;2023-07-02T14:39:43;22.60;99.90
59999;DHT22;45859;51.378;6.736;2023-07-02T14:42:08;22.70;99.90
59999;DHT22;45859;51.378;6.736;2023-07-02T14:44:34;22.80;99.90
59999;DHT22;45859;51.378;6.736;2023-07-02T14:47:00;22.90;99.90
59999;DHT22;45859;51.378;6.736;2023-07-02T14:49:25;22.90;99.90
59999;DHT22;45859;51.378;6.736;2023-07-02T14:51:51;22.90;99.90
59999;DHT22;45859;51.378;6.736;2023-07-02T14:54:17;22.80;99.90
59999;DHT22;45859;51.378;6.736;2023-07-02T14:56:43;22.60;99.90
59999;DHT22;45859;51.378;6.736;2023-07-02T14:59:08;22.50;99.90
59999;DHT22;45859;51.378;6.736;2023-07-02T15:01:34;22.30;99.90
59999;DHT22;45859;51.378;6.736;2023-07-02T15:04:00;22.50;99.90
59999;DHT22;45859;51.378;6.736;2023-07-02T15:06:25;22.70;99.90
59999;DHT22;45859;51.378;6.736;2023-07-02T15:08:51;22.80;99.90
59999;DHT22;45859;51.378;6.736;2023-07-02T15:11:18;22.70;99.90
59999;DHT22;45859;51.378;6.736;2023-07-02T15:13:43;22.60;99.90
59999;DHT22;45859;51.378;6.736;2023-07-02T15:16:11;22.40;99.90
59999;DHT22;45859;51.378;6.736;2023-07-02T15:21:12;22.40;99.90
59999;DHT22;45859;51.378;6.736;2023-07-02T15:23:38;22.30;99.90
59999;DHT22;45859;51.378;6.736;2023-07-02T15:26:05;22.40;99.90
59999;DHT22;45859;51.378;6.736;2023-07-02T15:28:31;22.60;99.90
59999;DHT22;45859;51.378;6.736;2023-07-02T15:30:59;22.50;99.90
59999;DHT22;45859;51.378;6.736;2023-07-02T15:33:26;22.40;99.90
59999;DHT22;45859;51.378;6.736;2023-07-02T15:35:52;22.30;99.90
59999;DHT22;45859;51.378;6.736;2023-07-02T15:38:17;22.20;99.90
59999;DHT22;45859;51.378;6.736;2023-07-02T15:40:45;22.20;99.90
59999;DHT22;45859;51.378;6.736;2023-07-02T15:43:11;22.20;99.90
59999;DHT22;45859;51.378;6.736;2023-07-02T15:45:36;22.30;99.90